createdAt,value
2022-08-26T00:01:19.014Z,5.38
2022-08-26T00:03:56.333Z,4.93
2022-08-26T00:06:23.192Z,4.63
2022-08-26T00:08:49.872Z,5.55
2022-08-26T00:11:26.705Z,4.25
2022-08-26T00:13:54.640Z,5.03
2022-08-26T00:16:21.809Z,5.28
2022-08-26T00:18:48.529Z,4.38
2022-08-26T00:21:16.153Z,4.88
2022-08-26T00:23:42.987Z,4.50
2022-08-26T00:26:09.890Z,4.55
2022-08-26T00:28:37.978Z,4.53
2022-08-26T00:31:07.351Z,4.57
2022-08-26T00:33:38.506Z,4.78
2022-08-26T00:36:05.703Z,4.85
2022-08-26T00:38:32.574Z,4.65
2022-08-26T00:40:59.403Z,4.53
2022-08-26T00:43:29.786Z,4.88
2022-08-26T00:46:14.846Z,4.75
2022-08-26T00:48:44.185Z,5.05
2022-08-26T00:51:20.025Z,4.80
2022-08-26T00:53:51.445Z,4.78
2022-08-26T00:56:21.042Z,5.43
2022-08-26T00:58:48.316Z,4.65
2022-08-26T01:01:15.854Z,4.32
2022-08-26T01:03:43.525Z,4.47
2022-08-26T01:06:12.479Z,4.75
2022-08-26T01:08:39.983Z,4.30
2022-08-26T01:11:07.186Z,4.55
2022-08-26T01:13:36.602Z,4.63
2022-08-26T01:16:04.207Z,5.10
2022-08-26T01:18:31.938Z,4.70
2022-08-26T01:21:04.879Z,4.65
2022-08-26T01:23:35.155Z,4.10
2022-08-26T01:26:19.573Z,4.78
2022-08-26T01:28:51.700Z,4.40
2022-08-26T01:31:20.877Z,4.65
2022-08-26T01:34:02.296Z,5.25
2022-08-26T01:36:29.675Z,4.53
2022-08-26T01:38:56.432Z,4.18
2022-08-26T01:41:27.572Z,4.60
2022-08-26T01:43:57.025Z,4.57
2022-08-26T01:46:26.581Z,4.80
2022-08-26T01:49:11.327Z,4.70
2022-08-26T01:51:39.122Z,4.43
2022-08-26T01:54:11.948Z,4.28
2022-08-26T01:56:40.607Z,4.60
2022-08-26T01:59:09.431Z,4.18
2022-08-26T02:01:37.783Z,4.53
2022-08-26T02:04:08.166Z,4.20
2022-08-26T02:06:36.646Z,4.45
2022-08-26T02:09:04.301Z,4.50
2022-08-26T02:11:30.939Z,4.00
2022-08-26T02:14:02.847Z,4.13
2022-08-26T02:16:32.814Z,3.95
2022-08-26T02:19:00.532Z,4.60
2022-08-26T02:21:30.738Z,4.93
2022-08-26T02:23:57.495Z,4.63
2022-08-26T02:26:26.815Z,4.43
2022-08-26T02:29:02.001Z,4.63
2022-08-26T02:31:29.032Z,5.03
2022-08-26T02:33:55.813Z,4.80
2022-08-26T02:36:25.217Z,5.05
2022-08-26T02:38:55.402Z,4.63
2022-08-26T02:41:23.076Z,4.65
2022-08-26T02:43:50.044Z,4.60
2022-08-26T02:46:21.426Z,4.22
2022-08-26T02:48:57.258Z,4.25
2022-08-26T02:51:24.680Z,4.30
2022-08-26T02:53:51.375Z,4.35
2022-08-26T02:56:18.030Z,4.97
2022-08-26T02:58:45.007Z,4.10
2022-08-26T03:01:26.040Z,4.30
2022-08-26T03:03:53.587Z,5.75
2022-08-26T03:06:20.782Z,5.00
2022-08-26T03:08:47.601Z,4.60
2022-08-26T03:11:14.786Z,4.43
2022-08-26T03:13:41.694Z,5.03
2022-08-26T03:16:09.047Z,4.38
2022-08-26T03:18:36.197Z,4.80
2022-08-26T03:21:06.861Z,4.90
2022-08-26T03:23:34.001Z,3.78
2022-08-26T03:26:01.470Z,4.40
2022-08-26T03:28:28.172Z,4.07
2022-08-26T03:30:55.175Z,4.78
2022-08-26T03:33:22.478Z,4.90
2022-08-26T03:35:50.529Z,4.85
2022-08-26T03:38:17.807Z,4.72
2022-08-26T03:40:44.659Z,4.40
2022-08-26T03:43:12.067Z,4.30
2022-08-26T03:45:39.038Z,4.10
2022-08-26T03:48:05.796Z,4.63
2022-08-26T03:50:34.246Z,4.28
2022-08-26T03:53:03.071Z,4.50
2022-08-26T03:55:32.166Z,4.32
2022-08-26T03:57:59.414Z,4.15
2022-08-26T04:00:26.088Z,4.47
2022-08-26T04:03:00.998Z,4.47
2022-08-26T04:05:28.337Z,4.55
2022-08-26T04:07:55.187Z,4.45
2022-08-26T04:10:28.637Z,4.25
2022-08-26T04:12:56.328Z,4.72
2022-08-26T04:15:26.046Z,4.22
2022-08-26T04:17:52.714Z,4.07
2022-08-26T04:20:19.681Z,4.53
2022-08-26T04:22:46.674Z,3.67
2022-08-26T04:25:13.607Z,3.90
2022-08-26T04:27:40.336Z,4.18
2022-08-26T04:30:08.065Z,4.55
2022-08-26T04:32:35.515Z,4.43
2022-08-26T04:35:03.492Z,4.38
2022-08-26T04:37:31.782Z,4.50
2022-08-26T04:39:59.391Z,4.72
2022-08-26T04:42:26.416Z,4.40
2022-08-26T04:44:53.201Z,4.38
2022-08-26T04:47:19.890Z,4.03
2022-08-26T04:49:46.547Z,3.80
2022-08-26T04:52:13.359Z,4.63
2022-08-26T04:54:41.999Z,4.32
2022-08-26T04:57:08.995Z,4.30
2022-08-26T04:59:39.138Z,3.90
2022-08-26T05:02:07.138Z,4.43
2022-08-26T05:04:34.517Z,4.10
2022-08-26T05:07:02.398Z,4.32
2022-08-26T05:09:29.782Z,4.07
2022-08-26T05:11:57.205Z,4.30
2022-08-26T05:14:23.902Z,3.88
2022-08-26T05:16:50.653Z,4.50
2022-08-26T05:19:18.923Z,5.00
2022-08-26T05:21:46.173Z,5.05
2022-08-26T05:24:16.543Z,5.00
2022-08-26T05:26:44.568Z,4.93
2022-08-26T05:29:11.761Z,4.72
2022-08-26T05:31:38.686Z,4.75
2022-08-26T05:34:06.058Z,3.75
2022-08-26T05:36:34.953Z,4.65
2022-08-26T05:39:02.989Z,4.60
2022-08-26T05:41:34.356Z,4.30
2022-08-26T05:44:04.516Z,4.53
2022-08-26T05:46:31.828Z,5.38
2022-08-26T05:48:58.902Z,5.20
2022-08-26T05:51:26.372Z,5.28
2022-08-26T05:53:54.775Z,4.60
2022-08-26T05:56:24.934Z,4.78
2022-08-26T05:58:52.231Z,4.80
2022-08-26T06:01:21.400Z,5.15
2022-08-26T06:03:50.215Z,5.18
2022-08-26T06:06:27.352Z,5.00
2022-08-26T06:08:59.576Z,4.60
2022-08-26T06:11:27.569Z,5.13
2022-08-26T06:13:55.827Z,5.50
2022-08-26T06:16:25.564Z,5.57
2022-08-26T06:18:55.841Z,4.50
2022-08-26T06:21:22.439Z,3.70
2022-08-26T06:24:08.391Z,6.20
2022-08-26T06:26:36.017Z,5.22
2022-08-26T06:29:04.327Z,5.10
2022-08-26T06:31:32.266Z,4.38
2022-08-26T06:33:59.786Z,4.82
2022-08-26T06:36:32.303Z,6.72
2022-08-26T06:39:01.391Z,6.60
2022-08-26T06:41:28.279Z,6.78
2022-08-26T06:43:55.024Z,7.07
2022-08-26T06:46:22.162Z,4.53
2022-08-26T06:48:49.057Z,8.60
2022-08-26T06:51:15.707Z,5.70
2022-08-26T06:53:45.731Z,5.70
2022-08-26T06:56:13.010Z,5.28
2022-08-26T06:58:40.762Z,6.70
2022-08-26T07:01:22.159Z,5.72
2022-08-26T07:03:50.446Z,5.10
2022-08-26T07:06:20.818Z,6.13
2022-08-26T07:08:53.529Z,7.10
2022-08-26T07:11:20.810Z,6.78
2022-08-26T07:13:47.789Z,7.53
2022-08-26T07:16:15.661Z,5.80
2022-08-26T07:18:44.807Z,5.38
2022-08-26T07:21:12.652Z,6.93
2022-08-26T07:23:39.547Z,5.95
2022-08-26T07:26:16.431Z,5.13
2022-08-26T07:28:43.854Z,7.38
2022-08-26T07:31:11.292Z,5.78
2022-08-26T07:33:39.258Z,6.22
2022-08-26T07:36:10.870Z,6.10
2022-08-26T07:38:38.916Z,6.07
2022-08-26T07:41:06.416Z,6.47
2022-08-26T07:43:36.030Z,5.63
2022-08-26T07:46:02.868Z,6.43
2022-08-26T07:48:29.658Z,5.55
2022-08-26T07:50:57.961Z,5.75
2022-08-26T07:53:25.201Z,7.07
2022-08-26T07:55:52.007Z,4.55
2022-08-26T07:58:19.091Z,5.20
2022-08-26T08:00:46.064Z,5.13
2022-08-26T08:03:13.011Z,6.45
2022-08-26T08:05:41.442Z,5.00
2022-08-26T08:08:27.389Z,4.95
2022-08-26T08:10:56.492Z,5.28
2022-08-26T08:13:23.867Z,4.57
2022-08-26T08:15:50.609Z,5.50
2022-08-26T08:18:17.687Z,3.97
2022-08-26T08:21:04.643Z,4.75
2022-08-26T08:23:32.446Z,3.78
2022-08-26T08:26:02.885Z,4.65
2022-08-26T08:28:29.582Z,4.45
2022-08-26T08:30:56.629Z,4.90
2022-08-26T08:33:23.442Z,5.00
2022-08-26T08:35:50.265Z,5.00
2022-08-26T08:38:17.196Z,4.53
2022-08-26T08:40:45.396Z,3.53
2022-08-26T08:43:13.866Z,4.65
2022-08-26T08:45:43.158Z,4.47
2022-08-26T08:48:22.268Z,4.10
2022-08-26T08:50:56.201Z,4.65
2022-08-26T08:53:30.068Z,6.07
2022-08-26T08:56:01.220Z,4.75
2022-08-26T08:58:41.290Z,4.53
2022-08-26T09:01:14.876Z,4.40
2022-08-26T09:03:55.401Z,4.90
2022-08-26T09:06:22.104Z,5.75
2022-08-26T09:08:50.779Z,5.10
2022-08-26T09:11:18.786Z,3.97
2022-08-26T09:13:48.725Z,5.25
2022-08-26T09:16:20.300Z,4.72
2022-08-26T09:18:49.867Z,5.63
2022-08-26T09:21:17.996Z,5.70
2022-08-26T09:23:49.140Z,5.72
2022-08-26T09:26:29.299Z,4.25
2022-08-26T09:28:56.196Z,4.13
2022-08-26T09:31:30.748Z,3.42
2022-08-26T09:34:18.370Z,4.50
2022-08-26T09:36:47.407Z,4.93
2022-08-26T09:39:37.457Z,4.90
2022-08-26T09:42:07.850Z,4.53
2022-08-26T09:44:52.738Z,4.50
2022-08-26T09:47:23.617Z,3.83
2022-08-26T09:49:57.729Z,4.90
2022-08-26T09:52:26.882Z,4.55
2022-08-26T09:55:14.356Z,4.30
2022-08-26T09:57:48.341Z,3.50
2022-08-26T10:00:30.543Z,3.47
2022-08-26T10:03:01.079Z,3.60
2022-08-26T10:05:32.446Z,4.20
2022-08-26T10:07:59.697Z,4.00
2022-08-26T10:10:32.681Z,3.20
2022-08-26T10:13:03.654Z,4.00
2022-08-26T10:15:33.910Z,4.32
2022-08-26T10:18:00.716Z,3.92
2022-08-26T10:20:28.462Z,3.40
2022-08-26T10:22:55.046Z,4.28
2022-08-26T10:25:28.570Z,3.58
2022-08-26T10:27:55.244Z,2.83
2022-08-26T10:30:24.207Z,2.83
2022-08-26T10:32:54.072Z,2.63
2022-08-26T10:35:21.043Z,3.05
2022-08-26T10:37:51.137Z,3.10
2022-08-26T10:40:21.176Z,3.28
2022-08-26T10:43:20.328Z,2.38
2022-08-26T10:45:53.012Z,3.20
2022-08-26T10:48:23.274Z,3.13
2022-08-26T10:50:50.251Z,2.85
2022-08-26T10:53:25.400Z,2.78
2022-08-26T10:55:53.218Z,2.92
2022-08-26T10:58:26.685Z,2.72
2022-08-26T11:01:23.292Z,2.72
2022-08-26T11:03:50.117Z,3.20
2022-08-26T11:06:19.544Z,3.15
2022-08-26T11:08:57.294Z,3.63
2022-08-26T11:11:50.872Z,3.65
2022-08-26T11:14:29.290Z,2.95
2022-08-26T11:16:57.757Z,3.28
2022-08-26T11:19:50.540Z,3.45
2022-08-26T11:22:32.533Z,2.50
2022-08-26T11:24:59.362Z,2.85
2022-08-26T11:27:26.186Z,3.00
2022-08-26T11:29:56.160Z,3.22
2022-08-26T11:32:46.739Z,3.35
2022-08-26T11:35:18.212Z,3.58
2022-08-26T11:37:48.278Z,3.30
2022-08-26T11:40:20.815Z,2.92
2022-08-26T11:42:54.549Z,3.42
2022-08-26T11:45:36.494Z,3.22
2022-08-26T11:48:22.673Z,3.40
2022-08-26T11:50:53.963Z,3.22
2022-08-26T11:53:20.639Z,2.33
2022-08-26T11:55:50.862Z,2.78
2022-08-26T11:58:21.494Z,3.10
2022-08-26T12:00:49.009Z,3.42
2022-08-26T12:03:17.691Z,3.60
2022-08-26T12:05:46.151Z,3.05
2022-08-26T12:08:16.661Z,3.40
2022-08-26T12:10:43.540Z,2.50
2022-08-26T12:13:19.742Z,2.80
2022-08-26T12:15:52.471Z,3.20
2022-08-26T12:18:29.195Z,3.03
2022-08-26T12:20:58.566Z,3.00
2022-08-26T12:23:37.246Z,2.60
2022-08-26T12:26:19.078Z,2.88
2022-08-26T12:28:50.663Z,2.40
2022-08-26T12:31:22.737Z,3.20
2022-08-26T12:33:49.703Z,2.25
2022-08-26T12:36:39.750Z,2.55
2022-08-26T12:39:07.851Z,2.85
2022-08-26T12:41:39.424Z,2.83
2022-08-26T12:44:06.176Z,3.00
2022-08-26T12:46:32.856Z,3.05
2022-08-26T12:49:01.881Z,2.90
2022-08-26T12:51:29.871Z,2.90
2022-08-26T12:53:57.573Z,2.72
2022-08-26T12:56:38.945Z,2.85
2022-08-26T12:59:20.793Z,2.85
2022-08-26T13:01:48.652Z,3.20
2022-08-26T13:04:33.936Z,3.03
2022-08-26T13:07:33.465Z,3.20
2022-08-26T13:10:01.080Z,3.05
2022-08-26T13:12:32.221Z,2.67
2022-08-26T13:14:59.912Z,3.17
2022-08-26T13:17:28.100Z,2.70
2022-08-26T13:19:54.909Z,2.90
2022-08-26T13:22:24.345Z,2.63
2022-08-26T13:24:55.866Z,2.80
2022-08-26T13:27:23.856Z,2.58
2022-08-26T13:29:51.297Z,2.33
2022-08-26T13:32:18.478Z,3.03
2022-08-26T13:34:51.049Z,2.60
2022-08-26T13:37:19.840Z,2.78
2022-08-26T13:39:46.506Z,3.00
2022-08-26T13:42:14.295Z,3.60
2022-08-26T13:44:43.852Z,2.85
2022-08-26T13:47:10.621Z,2.60
2022-08-26T13:49:37.212Z,2.85
2022-08-26T13:52:04.171Z,3.50
2022-08-26T13:54:30.882Z,3.17
2022-08-26T13:56:57.753Z,3.10
2022-08-26T13:59:24.651Z,3.05
2022-08-26T14:01:51.422Z,3.65
2022-08-26T14:04:20.754Z,3.03
2022-08-26T14:06:54.058Z,2.83
2022-08-26T14:09:20.778Z,3.10
2022-08-26T14:11:54.058Z,3.15
2022-08-26T14:14:21.641Z,3.50
2022-08-26T14:16:59.581Z,3.10
2022-08-26T14:19:27.543Z,3.65
2022-08-26T14:21:54.236Z,3.55
2022-08-26T14:24:20.943Z,3.05
2022-08-26T14:26:48.620Z,3.45
2022-08-26T14:29:16.869Z,2.88
2022-08-26T14:31:43.999Z,3.17
2022-08-26T14:34:12.773Z,3.33
2022-08-26T14:36:39.517Z,2.70
2022-08-26T14:39:07.872Z,3.90
2022-08-26T14:41:37.179Z,2.70
2022-08-26T14:44:08.192Z,3.90
2022-08-26T14:46:43.541Z,4.07
2022-08-26T14:49:10.879Z,3.08
2022-08-26T14:51:37.956Z,3.53
2022-08-26T14:54:13.973Z,3.55
2022-08-26T14:56:51.750Z,3.60
2022-08-26T14:59:20.867Z,3.80
2022-08-26T15:01:48.151Z,3.42
2022-08-26T15:04:15.427Z,3.70
2022-08-26T15:06:42.446Z,3.22
2022-08-26T15:09:09.292Z,3.35
2022-08-26T15:11:36.332Z,3.63
2022-08-26T15:14:03.335Z,4.00
2022-08-26T15:16:30.813Z,4.13
2022-08-26T15:18:58.309Z,4.18
2022-08-26T15:21:25.798Z,3.40
2022-08-26T15:23:53.327Z,4.55
2022-08-26T15:26:20.217Z,3.60
2022-08-26T15:28:49.566Z,4.03
2022-08-26T15:31:16.497Z,3.63
2022-08-26T15:33:45.918Z,3.90
2022-08-26T15:36:12.865Z,4.25
2022-08-26T15:38:41.558Z,4.03
2022-08-26T15:41:09.060Z,4.05
2022-08-26T15:43:36.870Z,3.80
2022-08-26T15:46:04.091Z,4.13
2022-08-26T15:48:31.070Z,4.10
2022-08-26T15:51:02.470Z,4.63
2022-08-26T15:53:31.513Z,4.40
2022-08-26T15:55:59.026Z,4.10
2022-08-26T15:58:27.206Z,4.22
2022-08-26T16:00:54.892Z,4.22
2022-08-26T16:03:22.695Z,3.80
2022-08-26T16:05:49.617Z,4.32
2022-08-26T16:08:16.369Z,3.33
2022-08-26T16:10:49.762Z,3.60
2022-08-26T16:13:17.746Z,3.80
2022-08-26T16:15:44.606Z,3.70
2022-08-26T16:18:14.153Z,3.85
2022-08-26T16:20:55.383Z,4.10
2022-08-26T16:23:35.389Z,3.40
2022-08-26T16:26:12.287Z,3.20
2022-08-26T16:28:39.150Z,2.85
2022-08-26T16:31:06.510Z,2.58
2022-08-26T16:33:33.269Z,2.63
2022-08-26T16:36:00.018Z,2.10
2022-08-26T16:38:26.702Z,1.92
2022-08-26T16:40:53.304Z,1.90
2022-08-26T16:43:19.962Z,2.20
2022-08-26T16:45:46.651Z,1.98
2022-08-26T16:48:13.531Z,4.00
2022-08-26T16:50:42.025Z,4.00
2022-08-26T16:53:15.983Z,2.92
2022-08-26T16:55:46.177Z,3.80
2022-08-26T16:58:12.974Z,3.03
2022-08-26T17:00:39.628Z,2.80
2022-08-26T17:03:06.359Z,3.58
2022-08-26T17:05:33.205Z,2.33
2022-08-26T17:08:00.137Z,2.83
2022-08-26T17:10:27.606Z,1.73
2022-08-26T17:12:54.532Z,2.22
2022-08-26T17:15:23.859Z,2.50
2022-08-26T17:17:51.278Z,2.58
2022-08-26T17:20:18.390Z,2.15
2022-08-26T17:22:47.626Z,2.28
2022-08-26T17:25:22.269Z,2.13
2022-08-26T17:27:49.083Z,2.50
2022-08-26T17:30:16.712Z,2.33
2022-08-26T17:32:43.920Z,2.92
2022-08-26T17:35:11.191Z,1.92
2022-08-26T17:37:40.035Z,1.90
2022-08-26T17:40:08.163Z,2.55
2022-08-26T17:42:34.830Z,2.35
2022-08-26T17:45:01.561Z,2.50
2022-08-26T17:47:28.271Z,2.08
2022-08-26T17:49:55.040Z,2.08
2022-08-26T17:52:21.920Z,2.28
2022-08-26T17:54:51.712Z,2.22
2022-08-26T17:57:18.375Z,2.13
2022-08-26T17:59:46.081Z,2.25
2022-08-26T18:02:14.280Z,2.03
2022-08-26T18:04:41.060Z,2.22
2022-08-26T18:07:07.850Z,2.08
2022-08-26T18:09:34.733Z,2.40
2022-08-26T18:12:01.511Z,1.98
2022-08-26T18:14:28.457Z,2.15
2022-08-26T18:16:55.196Z,2.28
2022-08-26T18:19:21.818Z,2.38
2022-08-26T18:21:48.690Z,2.17
2022-08-26T18:24:15.430Z,2.05
2022-08-26T18:26:48.445Z,2.50
2022-08-26T18:29:16.121Z,2.20
2022-08-26T18:31:42.832Z,2.03
2022-08-26T18:34:13.080Z,2.42
2022-08-26T18:36:40.551Z,2.45
2022-08-26T18:39:08.166Z,2.45
2022-08-26T18:41:42.717Z,2.25
2022-08-26T18:44:13.481Z,2.72
2022-08-26T18:46:41.235Z,2.28
2022-08-26T18:49:08.801Z,2.70
2022-08-26T18:51:35.722Z,2.05
2022-08-26T18:54:03.712Z,2.45
2022-08-26T18:56:30.637Z,2.17
2022-08-26T18:58:59.103Z,2.65
2022-08-26T19:01:27.670Z,2.50
2022-08-26T19:03:55.007Z,2.58
2022-08-26T19:06:22.431Z,2.50
2022-08-26T19:08:50.208Z,2.33
2022-08-26T19:11:17.069Z,2.10
2022-08-26T19:13:57.998Z,2.10
2022-08-26T19:16:28.355Z,2.67
2022-08-26T19:18:55.552Z,2.20
2022-08-26T19:21:22.855Z,2.58
2022-08-26T19:23:50.117Z,2.40
2022-08-26T19:26:17.167Z,2.47
2022-08-26T19:28:43.891Z,2.50
2022-08-26T19:31:11.727Z,2.25
2022-08-26T19:33:39.765Z,2.75
2022-08-26T19:36:08.694Z,2.08
2022-08-26T19:38:37.206Z,2.70
2022-08-26T19:41:03.959Z,2.53
2022-08-26T19:43:30.680Z,2.50
2022-08-26T19:45:59.083Z,2.20
2022-08-26T19:48:25.872Z,2.47
2022-08-26T19:50:52.600Z,2.50
2022-08-26T19:53:19.915Z,2.65
2022-08-26T19:55:46.597Z,2.38
2022-08-26T19:58:13.291Z,2.45
2022-08-26T20:00:42.369Z,2.90
2022-08-26T20:03:10.715Z,2.40
2022-08-26T20:05:42.852Z,2.47
2022-08-26T20:08:11.655Z,2.78
2022-08-26T20:10:49.890Z,2.38
2022-08-26T20:13:16.776Z,2.42
2022-08-26T20:15:43.425Z,2.92
2022-08-26T20:18:30.066Z,2.55
2022-08-26T20:21:15.419Z,2.60
2022-08-26T20:23:42.899Z,2.40
2022-08-26T20:26:09.755Z,3.17
2022-08-26T20:28:36.564Z,2.92
2022-08-26T20:31:03.650Z,2.40
2022-08-26T20:33:31.272Z,2.85
2022-08-26T20:36:13.214Z,2.15
2022-08-26T20:38:39.848Z,2.72
2022-08-26T20:41:06.598Z,2.60
2022-08-26T20:43:33.319Z,2.88
2022-08-26T20:46:00.712Z,2.28
2022-08-26T20:48:27.365Z,2.45
2022-08-26T20:50:59.061Z,2.10
2022-08-26T20:53:29.224Z,2.80
2022-08-26T20:55:59.519Z,2.40
2022-08-26T20:58:26.207Z,2.45
2022-08-26T21:00:52.971Z,2.25
2022-08-26T21:03:23.143Z,2.17
2022-08-26T21:05:50.066Z,2.40
2022-08-26T21:08:16.810Z,2.70
2022-08-26T21:10:43.965Z,2.80
2022-08-26T21:13:12.980Z,2.95
2022-08-26T21:15:39.841Z,2.33
2022-08-26T21:18:06.490Z,2.92
2022-08-26T21:20:33.281Z,2.30
2022-08-26T21:22:59.986Z,2.90
2022-08-26T21:25:26.759Z,3.03
2022-08-26T21:27:53.748Z,2.60
2022-08-26T21:30:20.531Z,3.13
2022-08-26T21:32:47.157Z,3.22
2022-08-26T21:35:13.883Z,3.22
2022-08-26T21:37:40.511Z,3.22
2022-08-26T21:40:08.147Z,2.95
2022-08-26T21:42:35.407Z,3.30
2022-08-26T21:45:02.961Z,3.10
2022-08-26T21:47:32.282Z,2.45
2022-08-26T21:49:59.278Z,2.90
2022-08-26T21:52:26.612Z,3.17
2022-08-26T21:54:56.932Z,3.05
2022-08-26T21:57:23.624Z,2.85
2022-08-26T21:59:50.398Z,2.15
2022-08-26T22:02:17.164Z,2.97
2022-08-26T22:04:48.517Z,2.55
2022-08-26T22:07:17.333Z,2.60
